Terminal Aerodrome Forecast
Issued by NWS

Home | Current Version | Previous Version | Text Only | Print | Product List | Glossary On
Versions: 1 2 3 4 5 6 7 8 9 10 11 12 13 14
000
FTAK31 PAJN 051122
TAFAKT
TAF
PAKT 051122Z 0512/0612 15004KT P6SM -RA SCT050 OVC070
     FM051600 15011KT 5SM -RA BR BKN020 OVC035 WS020/14030KT
     FM052100 15010KT 6SM -SHRA BR BKN030 OVC040
     FM060600 14007KT 6SM -SHRA BR SCT015 BKN025 OVC035
     FM060900 14008KT 5SM -SHRA BR SCT007 BKN012 OVC025
      AMD LTD TO CLD VIS AND WIND 0512/0515=

USA.gov is the U.S. government's official web portal to all federal, state and local government web resources and services.